Time;durP1;ratioP1;P1;durP2;ratioP2;P2;SDS_P1;SDS_P2;PMS_P1;PMS_P2;Temp;Humidity;BMP_temperature;BMP_pressure;BME280_temperature;BME280_humidity;BME280_pressure;Samples;Min_cycle;Max_cycle;Signal;HPM_P1;HPM_P2
2023/03/10 00:00:40;;;;;;;40.23;12.47;;;3.30;99.90;;;;;;4135906;28;20473;-74
2023/03/10 00:02:48;;;;;;;39.83;13.90;;;3.40;99.90;;;;;;4148911;28;20474;-75
2023/03/10 00:04:50;;;;;;;33.33;12.03;;;3.40;99.90;;;;;;4136797;28;20562;-74
2023/03/10 00:06:52;;;;;;;29.93;11.50;;;3.40;99.90;;;;;;4136002;28;20486;-75
2023/03/10 00:08:54;;;;;;;27.50;10.80;;;3.50;99.90;;;;;;4136531;28;20522;-75
2023/03/10 00:10:56;;;;;;;28.73;10.10;;;3.60;99.90;;;;;;4132898;28;21036;-74
2023/03/10 00:12:58;;;;;;;31.93;11.00;;;3.60;99.90;;;;;;4136331;28;20515;-74
2023/03/10 00:15:00;;;;;;;31.60;10.50;;;3.70;99.90;;;;;;4136882;28;20546;-75
2023/03/10 00:17:04;;;;;;;26.90;9.70;;;3.70;99.90;;;;;;4136487;28;20469;-74
2023/03/10 00:19:06;;;;;;;28.07;9.20;;;3.80;99.90;;;;;;4135704;28;20566;-75
2023/03/10 00:21:13;;;;;;;24.00;8.57;;;3.90;99.90;;;;;;4132612;28;20455;-75
2023/03/10 00:23:15;;;;;;;25.80;8.40;;;4.00;99.90;;;;;;4136696;28;20535;-75
2023/03/10 00:25:17;;;;;;;30.47;8.83;;;4.00;99.90;;;;;;4134983;28;20499;-73
2023/03/10 00:27:18;;;;;;;21.53;7.50;;;4.20;99.90;;;;;;4133744;28;20479;-75
2023/03/10 00:29:20;;;;;;;26.13;7.67;;;4.20;99.90;;;;;;4134845;28;20563;-72
2023/03/10 00:31:25;;;;;;;24.60;7.27;;;4.30;99.90;;;;;;4133651;28;21149;-73
2023/03/10 00:33:33;;;;;;;24.17;6.90;;;4.40;99.90;;;;;;4134164;28;21099;-75
2023/03/10 00:35:35;;;;;;;19.60;7.10;;;4.50;99.90;;;;;;4135688;28;20930;-75
2023/03/10 00:37:38;;;;;;;27.57;6.47;;;4.50;99.90;;;;;;4138227;28;20454;-76
2023/03/10 00:39:40;;;;;;;17.93;6.03;;;4.60;99.90;;;;;;4133370;28;21029;-74
2023/03/10 00:41:42;;;;;;;21.40;6.50;;;4.70;99.90;;;;;;4136652;28;20451;-74
2023/03/10 00:43:44;;;;;;;17.87;6.17;;;4.80;99.90;;;;;;4132431;28;20531;-74
2023/03/10 00:45:46;;;;;;;26.60;6.33;;;4.90;99.90;;;;;;4136317;28;20468;-74
2023/03/10 00:47:48;;;;;;;27.37;6.97;;;5.00;99.90;;;;;;4136319;28;20519;-74
2023/03/10 00:49:52;;;;;;;28.80;6.63;;;5.10;99.90;;;;;;4132124;28;20497;-74
2023/03/10 00:51:54;;;;;;;16.77;6.30;;;5.20;99.90;;;;;;4137708;28;20467;-74
2023/03/10 00:53:56;;;;;;;15.37;5.70;;;5.20;99.90;;;;;;4138532;28;20917;-75
2023/03/10 00:55:59;;;;;;;18.00;6.00;;;5.30;99.90;;;;;;4139475;28;20468;-75
2023/03/10 00:58:01;;;;;;;19.17;5.60;;;5.30;99.90;;;;;;4136152;28;20887;-74
2023/03/10 01:00:05;;;;;;;17.37;5.23;;;5.40;99.90;;;;;;4134751;28;20465;-74
2023/03/10 01:02:07;;;;;;;18.00;5.67;;;5.40;99.90;;;;;;4134536;28;20457;-74
2023/03/10 01:04:12;;;;;;;12.80;4.50;;;5.50;99.90;;;;;;4136586;28;20980;-74
2023/03/10 01:06:15;;;;;;;16.27;4.63;;;5.40;99.90;;;;;;4137145;28;20484;-75
2023/03/10 01:08:17;;;;;;;14.90;5.00;;;5.50;99.90;;;;;;4138725;28;20854;-74
2023/03/10 01:10:20;;;;;;;14.13;4.73;;;5.50;99.90;;;;;;4138462;28;20465;-74
2023/03/10 01:12:21;;;;;;;15.30;4.03;;;5.60;99.90;;;;;;4138462;28;20832;-74
2023/03/10 01:14:24;;;;;;;19.97;4.17;;;5.60;99.90;;;;;;4137105;28;20456;-75
2023/03/10 01:16:26;;;;;;;13.10;3.57;;;5.80;99.90;;;;;;4139005;28;20452;-75
2023/03/10 01:18:28;;;;;;;12.33;4.40;;;5.80;99.90;;;;;;4138923;28;20522;-74
2023/03/10 01:20:30;;;;;;;15.53;3.43;;;5.80;99.90;;;;;;4136473;28;20543;-75
2023/03/10 01:22:34;;;;;;;11.93;3.53;;;5.80;99.90;;;;;;4140014;28;20900;-75
2023/03/10 01:24:36;;;;;;;8.63;3.17;;;5.80;99.90;;;;;;4139524;28;20908;-74
2023/03/10 01:26:37;;;;;;;12.20;3.40;;;5.90;99.90;;;;;;4136944;28;20537;-75
2023/03/10 01:28:39;;;;;;;17.80;3.07;;;5.90;99.90;;;;;;4138159;28;20476;-74
2023/03/10 01:30:42;;;;;;;12.23;3.10;;;6.00;99.90;;;;;;4139525;28;20461;-74
2023/03/10 01:32:44;;;;;;;14.67;3.00;;;6.00;99.90;;;;;;4138098;28;20979;-75
2023/03/10 01:34:46;;;;;;;13.07;2.80;;;6.00;99.90;;;;;;4134038;28;20575;-75
2023/03/10 01:36:48;;;;;;;8.67;2.37;;;6.10;99.90;;;;;;4138412;28;20470;-74
2023/03/10 01:38:52;;;;;;;8.83;2.13;;;6.10;99.90;;;;;;4138854;28;20543;-75
2023/03/10 01:40:54;;;;;;;12.20;2.30;;;6.20;99.90;;;;;;4138789;28;20565;-72
2023/03/10 01:43:32;;;;;;;21.10;2.83;;;6.30;99.90;;;;;;4138861;28;20494;-72
2023/03/10 01:46:11;;;;;;;10.03;2.27;;;6.30;99.90;;;;;;4137857;28;20465;-75
2023/03/10 01:48:14;;;;;;;21.53;2.40;;;6.40;99.90;;;;;;4137118;28;20842;-74
2023/03/10 01:50:18;;;;;;;16.60;2.70;;;6.50;99.90;;;;;;4137191;28;20481;-74
2023/03/10 01:52:24;;;;;;;16.07;2.07;;;6.50;99.90;;;;;;4136273;28;20519;-74
2023/03/10 01:54:33;;;;;;;10.20;2.07;;;6.50;99.90;;;;;;4137116;28;20508;-74
2023/03/10 01:56:36;;;;;;;9.27;1.97;;;6.60;99.90;;;;;;4138779;28;20555;-75
2023/03/10 01:58:40;;;;;;;15.57;2.00;;;6.60;99.90;;;;;;4139764;28;20472;-74
2023/03/10 02:00:43;;;;;;;11.27;1.87;;;6.70;99.90;;;;;;4136972;28;20477;-73
2023/03/10 02:02:52;;;;;;;9.20;1.63;;;6.70;99.90;;;;;;4143969;28;20549;-76
2023/03/10 02:04:55;;;;;;;7.23;1.87;;;6.70;99.90;;;;;;4136987;28;20556;-74
2023/03/10 02:06:58;;;;;;;9.17;2.00;;;6.70;99.90;;;;;;4139044;28;20477;-75
2023/03/10 02:09:04;;;;;;;11.27;2.10;;;6.70;99.90;;;;;;4136403;28;20504;-73
2023/03/10 02:11:07;;;;;;;9.37;2.17;;;6.80;99.90;;;;;;4140279;28;20834;-74
2023/03/10 02:13:09;;;;;;;8.13;2.30;;;6.80;99.90;;;;;;4138894;28;20589;-74
2023/03/10 02:15:12;;;;;;;11.67;1.77;;;6.80;99.90;;;;;;4138639;28;20995;-74
2023/03/10 02:17:16;;;;;;;19.80;3.03;;;6.90;99.90;;;;;;4137689;28;20502;-74
2023/03/10 02:19:31;;;;;;;7.63;1.70;;;6.90;99.90;;;;;;4136698;28;20563;-74
2023/03/10 02:21:43;;;;;;;7.33;1.70;;;6.90;99.90;;;;;;4139847;28;20476;-74
2023/03/10 02:23:53;;;;;;;5.20;1.60;;;6.90;99.90;;;;;;4138537;28;20484;-74
2023/03/10 02:26:00;;;;;;;7.47;1.63;;;6.90;99.90;;;;;;4137859;28;20454;-74
2023/03/10 02:28:05;;;;;;;9.73;2.00;;;6.90;99.90;;;;;;4139221;28;20500;-75
2023/03/10 02:30:13;;;;;;;7.90;1.77;;;6.90;99.90;;;;;;4138230;28;20465;-74
2023/03/10 02:32:16;;;;;;;7.27;1.70;;;7.00;99.90;;;;;;4138125;28;20501;-75
2023/03/10 02:34:19;;;;;;;6.87;1.73;;;7.00;99.90;;;;;;4141022;28;21058;-74
2023/03/10 02:36:23;;;;;;;9.53;1.80;;;7.00;99.90;;;;;;4137598;28;20509;-75
2023/03/10 02:38:27;;;;;;;8.67;1.93;;;7.00;99.90;;;;;;4139163;28;20494;-72
2023/03/10 02:40:34;;;;;;;11.27;2.03;;;7.00;99.90;;;;;;4137880;28;20542;-76
2023/03/10 02:42:36;;;;;;;8.00;1.60;;;7.00;99.90;;;;;;4137082;28;20455;-73
2023/03/10 02:44:40;;;;;;;4.73;1.60;;;7.00;99.90;;;;;;4137298;28;21134;-74
2023/03/10 02:46:42;;;;;;;7.57;2.20;;;7.10;99.90;;;;;;4135798;28;21352;-74
2023/03/10 02:48:44;;;;;;;5.87;1.63;;;7.10;99.90;;;;;;4137210;28;20494;-75
2023/03/10 02:50:47;;;;;;;7.67;1.60;;;7.20;99.90;;;;;;4135235;28;20471;-75
2023/03/10 02:52:55;;;;;;;8.43;1.83;;;7.10;99.90;;;;;;4136746;28;20487;-75
2023/03/10 02:54:57;;;;;;;6.40;1.73;;;7.20;99.90;;;;;;4137316;28;20558;-74
2023/03/10 02:56:59;;;;;;;10.87;1.63;;;7.20;99.90;;;;;;4137468;28;20895;-75
2023/03/10 02:59:02;;;;;;;7.10;1.93;;;7.30;99.90;;;;;;4134931;28;20599;-76
2023/03/10 03:01:06;;;;;;;7.77;1.70;;;7.30;99.90;;;;;;4137892;28;20547;-73
2023/03/10 03:03:08;;;;;;;7.00;1.50;;;7.30;99.90;;;;;;4136658;28;21016;-76
2023/03/10 03:05:10;;;;;;;7.30;1.73;;;7.30;99.90;;;;;;4134711;28;20554;-72
2023/03/10 03:07:12;;;;;;;6.33;1.60;;;7.30;99.90;;;;;;4136234;28;20627;-75
2023/03/10 03:09:14;;;;;;;7.53;1.57;;;7.30;99.90;;;;;;4133969;28;20552;-75
2023/03/10 03:11:16;;;;;;;8.33;1.50;;;7.30;99.90;;;;;;4137328;28;20212;-74
2023/03/10 03:13:18;;;;;;;9.40;2.40;;;7.30;99.90;;;;;;4137246;28;20499;-74
2023/03/10 03:15:20;;;;;;;7.67;1.70;;;7.40;99.90;;;;;;4138866;28;20239;-74
2023/03/10 03:17:24;;;;;;;6.33;1.40;;;7.30;99.90;;;;;;4132918;28;20507;-72
2023/03/10 03:19:31;;;;;;;6.27;1.63;;;7.40;99.90;;;;;;4141678;28;20224;-74
2023/03/10 03:21:33;;;;;;;5.30;1.67;;;7.40;99.90;;;;;;4143842;28;20474;-75
2023/03/10 03:23:35;;;;;;;8.37;1.97;;;7.40;99.90;;;;;;4138047;28;20502;-73
2023/03/10 03:25:40;;;;;;;8.80;1.60;;;7.40;99.90;;;;;;4134355;28;21254;-72
2023/03/10 03:27:42;;;;;;;9.93;2.00;;;7.40;99.90;;;;;;4137514;28;21128;-74
2023/03/10 03:29:44;;;;;;;15.27;2.47;;;7.40;99.90;;;;;;4134144;28;20504;-75
2023/03/10 03:31:46;;;;;;;9.03;2.60;;;7.40;99.90;;;;;;4137122;28;20581;-75
2023/03/10 03:33:50;;;;;;;6.53;1.73;;;7.40;99.90;;;;;;4137337;28;20216;-74
2023/03/10 03:35:52;;;;;;;7.67;1.80;;;7.40;99.90;;;;;;4134906;28;20459;-75
2023/03/10 03:37:54;;;;;;;15.87;2.00;;;7.40;99.90;;;;;;4135786;28;20446;-74
2023/03/10 03:39:56;;;;;;;14.43;2.40;;;7.50;99.90;;;;;;4135150;28;20291;-74
2023/03/10 03:41:58;;;;;;;8.83;2.00;;;7.50;99.90;;;;;;4135510;28;20494;-74
2023/03/10 03:44:00;;;;;;;8.50;1.57;;;7.50;99.90;;;;;;4134235;28;20505;-74
2023/03/10 03:46:03;;;;;;;4.40;1.50;;;7.50;99.90;;;;;;4135166;28;21458;-74
2023/03/10 03:48:05;;;;;;;9.87;1.90;;;7.50;99.90;;;;;;4134420;28;20242;-75
2023/03/10 03:50:11;;;;;;;6.20;1.70;;;7.50;99.90;;;;;;4136547;28;20242;-74
2023/03/10 03:52:13;;;;;;;8.23;1.67;;;7.60;99.90;;;;;;4136421;28;20219;-74
2023/03/10 03:54:18;;;;;;;8.70;1.90;;;7.60;99.90;;;;;;4137493;28;20283;-74
2023/03/10 03:56:20;;;;;;;4.53;1.40;;;7.60;99.90;;;;;;4139778;28;20530;-72
2023/03/10 03:58:22;;;;;;;5.90;1.97;;;7.60;99.90;;;;;;4139405;28;20522;-73
2023/03/10 04:00:25;;;;;;;6.23;1.70;;;7.60;99.90;;;;;;4140234;28;20557;-73
2023/03/10 04:02:26;;;;;;;6.23;1.80;;;7.60;99.90;;;;;;4144138;28;20666;-71
2023/03/10 04:04:28;;;;;;;8.60;1.83;;;7.60;99.90;;;;;;4140995;28;20476;-72
2023/03/10 04:06:32;;;;;;;8.37;1.80;;;7.60;99.90;;;;;;4143449;28;20451;-72
2023/03/10 04:08:34;;;;;;;7.90;1.63;;;7.70;99.90;;;;;;4143753;28;20479;-71
2023/03/10 04:10:35;;;;;;;5.20;1.23;;;7.70;99.90;;;;;;4137584;28;20508;-72
2023/03/10 04:12:37;;;;;;;9.53;1.83;;;7.70;99.90;;;;;;4144599;28;20525;-71
2023/03/10 04:14:39;;;;;;;6.07;1.90;;;7.70;99.90;;;;;;4142278;28;20577;-71
2023/03/10 04:16:41;;;;;;;10.33;1.80;;;7.70;99.90;;;;;;4141626;28;20598;-72
2023/03/10 04:18:43;;;;;;;10.33;2.10;;;7.70;99.90;;;;;;4140800;28;20537;-72
2023/03/10 04:20:45;;;;;;;9.00;2.00;;;7.70;99.90;;;;;;4141160;28;20465;-72
2023/03/10 04:22:48;;;;;;;9.93;2.20;;;7.70;99.90;;;;;;4138545;28;20740;-72
2023/03/10 04:24:50;;;;;;;7.10;1.60;;;7.80;99.90;;;;;;4141189;28;21062;-71
2023/03/10 04:26:55;;;;;;;6.03;1.53;;;7.80;99.90;;;;;;4142698;28;20988;-72
2023/03/10 04:28:58;;;;;;;2.93;1.40;;;7.80;99.90;;;;;;4157317;28;21030;-72
2023/03/10 04:31:00;;;;;;;10.53;2.07;;;7.80;99.90;;;;;;4144421;28;20480;-72
2023/03/10 04:33:03;;;;;;;7.50;1.60;;;7.80;99.90;;;;;;4141999;28;20442;-72
2023/03/10 04:35:07;;;;;;;12.60;1.70;;;7.80;99.90;;;;;;4135696;28;20533;-72
2023/03/10 04:37:09;;;;;;;5.23;1.30;;;7.80;99.90;;;;;;4130891;28;20524;-71
2023/03/10 04:39:12;;;;;;;5.37;1.40;;;7.80;99.90;;;;;;4141891;28;20963;-72
2023/03/10 04:41:16;;;;;;;5.60;1.40;;;7.80;99.90;;;;;;4147635;28;20786;-72
2023/03/10 04:43:18;;;;;;;5.80;1.40;;;7.80;99.90;;;;;;4145316;28;20203;-75
2023/03/10 04:45:20;;;;;;;4.30;1.40;;;7.90;99.90;;;;;;4137964;28;21026;-72
2023/03/10 04:47:22;;;;;;;4.80;1.13;;;7.80;99.90;;;;;;4143687;28;21158;-72
2023/03/10 04:49:24;;;;;;;5.23;1.30;;;7.90;99.90;;;;;;4138822;28;20472;-72
2023/03/10 04:51:26;;;;;;;5.63;1.60;;;7.90;99.90;;;;;;4157346;28;20466;-72
2023/03/10 04:53:28;;;;;;;4.67;1.40;;;7.90;99.90;;;;;;4141960;28;20769;-72
2023/03/10 04:55:31;;;;;;;6.00;1.40;;;7.90;99.90;;;;;;4140959;28;20315;-72
2023/03/10 04:57:33;;;;;;;5.80;1.63;;;7.90;99.90;;;;;;4139941;28;20666;-72
2023/03/10 04:59:35;;;;;;;6.50;2.13;;;7.90;99.90;;;;;;4140024;28;20232;-73
2023/03/10 05:01:37;;;;;;;6.77;1.50;;;7.80;99.90;;;;;;4142001;28;21008;-72
2023/03/10 05:03:39;;;;;;;7.27;1.47;;;7.90;99.90;;;;;;4143437;28;20606;-73
2023/03/10 05:05:42;;;;;;;5.27;1.50;;;7.90;99.90;;;;;;4139719;28;20459;-72
2023/03/10 05:07:44;;;;;;;4.73;1.40;;;7.90;99.90;;;;;;4139203;28;20846;-72
2023/03/10 05:09:47;;;;;;;3.63;1.20;;;7.90;99.90;;;;;;4140890;28;20208;-72
2023/03/10 05:11:50;;;;;;;5.07;1.27;;;7.90;99.90;;;;;;4138334;28;20960;-72
2023/03/10 05:13:52;;;;;;;6.40;1.40;;;7.80;99.90;;;;;;4144112;28;20885;-72
2023/03/10 05:15:54;;;;;;;4.87;1.47;;;7.90;99.90;;;;;;4138745;28;20459;-72
2023/03/10 05:17:56;;;;;;;3.90;1.40;;;7.90;99.90;;;;;;4137366;28;20236;-71
2023/03/10 05:19:58;;;;;;;6.07;1.60;;;7.90;99.90;;;;;;4143967;28;20256;-72
2023/03/10 05:22:02;;;;;;;4.77;1.37;;;7.80;99.90;;;;;;4139036;28;20452;-72
2023/03/10 05:24:04;;;;;;;3.03;1.20;;;7.80;99.90;;;;;;4159363;28;20450;-72
2023/03/10 05:26:09;;;;;;;3.23;1.30;;;7.90;99.90;;;;;;4144808;28;20558;-72
2023/03/10 05:28:12;;;;;;;5.77;1.80;;;7.90;99.90;;;;;;4139025;28;20305;-72
2023/03/10 05:30:15;;;;;;;6.63;1.60;;;7.90;99.90;;;;;;4150519;28;20624;-72
2023/03/10 05:32:17;;;;;;;6.07;2.23;;;7.90;99.90;;;;;;4147979;28;20203;-72
2023/03/10 05:34:19;;;;;;;4.70;2.23;;;7.90;99.90;;;;;;4144962;28;20842;-72
2023/03/10 05:36:21;;;;;;;7.40;1.60;;;7.90;99.90;;;;;;4139569;28;20243;-72
2023/03/10 05:38:26;;;;;;;4.70;1.30;;;7.90;99.90;;;;;;4144541;28;20311;-73
2023/03/10 05:40:28;;;;;;;5.47;2.13;;;7.90;99.90;;;;;;4141278;28;20209;-71
2023/03/10 05:42:30;;;;;;;3.80;1.40;;;7.90;99.90;;;;;;4144418;28;20588;-72
2023/03/10 05:44:33;;;;;;;4.70;1.30;;;7.90;99.90;;;;;;4141872;28;20258;-72
2023/03/10 05:46:35;;;;;;;5.47;1.50;;;7.90;99.90;;;;;;4138195;28;20296;-72
2023/03/10 05:48:37;;;;;;;4.27;1.60;;;7.90;99.90;;;;;;4138298;28;20578;-72
2023/03/10 05:50:39;;;;;;;4.03;1.30;;;7.90;99.90;;;;;;4139752;28;20462;-71
2023/03/10 05:52:45;;;;;;;6.20;1.60;;;7.90;99.90;;;;;;4136026;28;20538;-72
2023/03/10 05:54:47;;;;;;;5.10;1.70;;;7.80;99.90;;;;;;4140246;28;20562;-72
2023/03/10 05:56:49;;;;;;;5.87;1.40;;;7.90;99.90;;;;;;4140553;28;20462;-73
2023/03/10 05:58:51;;;;;;;5.10;1.40;;;7.80;99.90;;;;;;4144882;28;21946;-72
2023/03/10 06:00:57;;;;;;;5.90;1.63;;;7.80;99.90;;;;;;4144028;28;20235;-73
2023/03/10 06:02:59;;;;;;;4.93;1.43;;;7.80;99.90;;;;;;4142715;28;20482;-72
2023/03/10 06:05:04;;;;;;;3.80;1.30;;;7.80;99.90;;;;;;4136167;28;20444;-73
2023/03/10 06:07:06;;;;;;;8.13;1.90;;;7.80;99.90;;;;;;4142506;28;20693;-74
2023/03/10 06:09:07;;;;;;;5.53;1.90;;;7.80;99.90;;;;;;4143572;28;20474;-77
2023/03/10 06:11:10;;;;;;;2.90;1.30;;;7.80;99.90;;;;;;4139579;28;20458;-74
2023/03/10 06:13:12;;;;;;;4.10;1.80;;;7.80;99.90;;;;;;4138607;28;20471;-78
2023/03/10 06:15:14;;;;;;;5.23;1.47;;;7.70;99.90;;;;;;4134329;28;20602;-77
2023/03/10 06:17:17;;;;;;;6.10;1.70;;;7.70;99.90;;;;;;4132756;28;20456;-77
2023/03/10 06:19:19;;;;;;;4.07;1.67;;;7.70;99.90;;;;;;4136344;28;20478;-73
2023/03/10 06:21:21;;;;;;;2.10;1.30;;;7.80;99.90;;;;;;4145074;28;20460;-73
2023/03/10 06:23:24;;;;;;;3.93;1.60;;;7.80;99.90;;;;;;4147480;28;21007;-73
2023/03/10 06:25:28;;;;;;;3.13;1.50;;;7.80;99.90;;;;;;4134368;28;20196;-73
2023/03/10 06:27:30;;;;;;;4.07;1.67;;;7.80;99.90;;;;;;4145762;28;20509;-73
2023/03/10 06:29:33;;;;;;;4.03;1.37;;;7.80;99.90;;;;;;4147669;28;20482;-73
2023/03/10 06:31:35;;;;;;;5.57;1.80;;;7.80;99.90;;;;;;4152126;28;20508;-75
2023/03/10 06:33:38;;;;;;;2.93;1.07;;;7.90;99.90;;;;;;4148047;28;20217;-73
2023/03/10 06:35:40;;;;;;;4.70;1.43;;;7.90;99.90;;;;;;4147248;28;20519;-74
2023/03/10 06:37:42;;;;;;;4.23;1.47;;;7.90;99.90;;;;;;4142721;28;20553;-75
2023/03/10 06:39:44;;;;;;;5.70;1.60;;;7.90;99.90;;;;;;4145216;28;20454;-73
2023/03/10 06:41:46;;;;;;;4.10;1.43;;;8.00;99.90;;;;;;4146512;28;20501;-73
2023/03/10 06:43:48;;;;;;;4.90;1.20;;;8.00;99.90;;;;;;4142963;28;20507;-73
2023/03/10 06:45:50;;;;;;;3.67;1.20;;;8.00;99.90;;;;;;4143929;28;20562;-74
2023/03/10 06:47:52;;;;;;;3.63;1.07;;;8.00;99.90;;;;;;4143252;28;21173;-74
2023/03/10 06:49:55;;;;;;;3.23;1.30;;;8.10;99.90;;;;;;4142573;28;20449;-73
2023/03/10 06:51:58;;;;;;;1.73;0.97;;;8.10;99.90;;;;;;4133891;28;20483;-73
2023/03/10 06:53:59;;;;;;;3.10;1.30;;;8.20;99.90;;;;;;4134721;28;20479;-73
2023/03/10 06:56:03;;;;;;;2.33;1.23;;;8.20;99.90;;;;;;4140766;28;20569;-74
2023/03/10 06:58:05;;;;;;;3.97;1.10;;;8.30;99.90;;;;;;4138919;28;20302;-73
2023/03/10 07:00:10;;;;;;;2.43;1.20;;;8.30;99.90;;;;;;4139431;28;20223;-76
2023/03/10 07:02:13;;;;;;;3.33;1.00;;;8.30;99.90;;;;;;4144647;28;20537;-74
2023/03/10 07:04:15;;;;;;;1.80;1.10;;;8.40;99.90;;;;;;4148153;28;20243;-73
2023/03/10 07:06:18;;;;;;;2.40;1.00;;;8.40;99.90;;;;;;4134493;28;20521;-73
2023/03/10 07:08:20;;;;;;;3.90;1.00;;;8.40;99.90;;;;;;4141678;28;20233;-76
2023/03/10 07:10:22;;;;;;;2.77;0.80;;;8.50;99.90;;;;;;4149201;28;20209;-79
2023/03/10 07:12:25;;;;;;;1.43;0.80;;;8.50;99.90;;;;;;4146736;28;20208;-77
2023/03/10 07:14:26;;;;;;;3.27;0.80;;;8.50;99.90;;;;;;4149985;28;20804;-75
2023/03/10 07:16:28;;;;;;;1.47;0.80;;;8.60;99.90;;;;;;4144426;28;20204;-75
2023/03/10 07:18:31;;;;;;;6.37;1.47;;;8.60;99.90;;;;;;4149532;28;20230;-74
2023/03/10 07:20:43;;;;;;;0.93;0.70;;;8.60;99.90;;;;;;4145030;28;20205;-74
2023/03/10 07:22:46;;;;;;;10.73;0.93;;;8.60;99.90;;;;;;4143136;28;20212;-75
2023/03/10 07:24:48;;;;;;;2.03;0.83;;;8.60;99.90;;;;;;4148178;28;20733;-77
2023/03/10 07:26:50;;;;;;;5.87;1.00;;;8.60;99.90;;;;;;4146895;28;20961;-75
2023/03/10 07:28:53;;;;;;;3.77;0.77;;;8.60;99.90;;;;;;4143755;28;20255;-74
2023/03/10 07:30:56;;;;;;;1.60;0.60;;;8.70;99.90;;;;;;4147946;28;20214;-76
2023/03/10 07:32:58;;;;;;;2.90;0.90;;;8.70;99.90;;;;;;4145843;28;20204;-74
2023/03/10 07:35:00;;;;;;;1.30;0.60;;;8.70;99.90;;;;;;4144977;28;20311;-74
2023/03/10 07:37:02;;;;;;;0.97;0.60;;;8.70;99.90;;;;;;4162656;28;20925;-74
2023/03/10 07:39:06;;;;;;;2.33;0.70;;;8.80;99.90;;;;;;4147974;28;20228;-74
2023/03/10 07:41:09;;;;;;;1.70;0.63;;;8.80;99.90;;;;;;4150656;28;20216;-74
2023/03/10 07:43:11;;;;;;;1.50;0.53;;;8.80;99.90;;;;;;4144252;28;20701;-74
2023/03/10 07:45:15;;;;;;;1.40;0.70;;;8.90;99.90;;;;;;4135725;28;20323;-77
2023/03/10 07:47:16;;;;;;;2.20;0.90;;;8.90;99.90;;;;;;4138045;28;20292;-77
2023/03/10 07:49:18;;;;;;;3.93;0.80;;;9.00;99.90;;;;;;4139112;28;20710;-77
2023/03/10 07:51:20;;;;;;;1.63;0.63;;;9.10;99.90;;;;;;4150696;28;20233;-76
2023/03/10 07:53:22;;;;;;;0.63;0.40;;;9.10;99.90;;;;;;4139251;28;20213;-76
2023/03/10 07:55:25;;;;;;;0.33;0.30;;;9.10;99.90;;;;;;4139547;28;20312;-80
2023/03/10 07:57:28;;;;;;;0.80;0.43;;;9.20;99.90;;;;;;4140296;28;20781;-74
2023/03/10 07:59:30;;;;;;;2.73;0.60;;;9.20;99.90;;;;;;4139434;28;20718;-76
2023/03/10 08:01:32;;;;;;;1.13;0.60;;;9.20;99.90;;;;;;4139527;28;20941;-74
2023/03/10 08:03:35;;;;;;;2.37;0.67;;;9.30;99.90;;;;;;4137937;28;20209;-74
2023/03/10 08:05:40;;;;;;;2.77;0.60;;;9.30;99.90;;;;;;4139881;28;20217;-75
2023/03/10 08:07:42;;;;;;;1.70;0.60;;;9.30;99.90;;;;;;4139615;28;20289;-75
2023/03/10 08:09:49;;;;;;;0.70;0.60;;;9.30;99.90;;;;;;4138712;28;20219;-77
2023/03/10 08:11:52;;;;;;;1.90;0.70;;;9.30;99.90;;;;;;4140712;28;20206;-77
2023/03/10 08:13:54;;;;;;;1.10;0.50;;;9.40;99.90;;;;;;4141171;28;20220;-75
2023/03/10 08:15:58;;;;;;;2.67;0.53;;;9.40;99.90;;;;;;4141555;28;20765;-74
2023/03/10 08:18:03;;;;;;;0.80;0.50;;;9.50;99.90;;;;;;4142567;28;20298;-76
2023/03/10 08:20:06;;;;;;;0.77;0.40;;;9.50;99.90;;;;;;4142287;28;20312;-77
2023/03/10 08:22:09;;;;;;;1.23;0.50;;;9.50;99.90;;;;;;4146845;28;20257;-75
2023/03/10 08:24:11;;;;;;;3.20;0.60;;;9.60;99.90;;;;;;4142390;28;21772;-74
2023/03/10 08:26:15;;;;;;;2.63;0.80;;;9.70;99.90;;;;;;4145591;28;20308;-77
2023/03/10 08:28:18;;;;;;;0.87;0.37;;;9.70;99.90;;;;;;4140600;28;20261;-75
2023/03/10 08:30:20;;;;;;;3.20;0.40;;;9.80;99.90;;;;;;4145037;28;20283;-77
2023/03/10 08:32:22;;;;;;;1.77;0.60;;;9.80;99.90;;;;;;4140512;28;20214;-77
2023/03/10 08:34:24;;;;;;;1.57;0.47;;;9.80;99.90;;;;;;4140637;28;20238;-76
2023/03/10 08:36:29;;;;;;;2.20;0.50;;;9.90;99.90;;;;;;4141776;28;21133;-77
2023/03/10 08:38:32;;;;;;;0.87;0.37;;;10.00;99.90;;;;;;4142138;28;20227;-75
2023/03/10 08:40:34;;;;;;;0.40;0.40;;;10.10;99.90;;;;;;4148136;28;20217;-74
2023/03/10 08:42:36;;;;;;;2.03;0.30;;;10.10;99.90;;;;;;4149026;28;20202;-74
2023/03/10 08:44:40;;;;;;;0.40;0.40;;;10.20;99.90;;;;;;4146383;28;20680;-76
2023/03/10 08:46:43;;;;;;;0.40;0.30;;;10.30;99.90;;;;;;4146264;28;20725;-75
2023/03/10 08:48:45;;;;;;;1.80;0.50;;;10.30;99.90;;;;;;4148104;28;20222;-75
2023/03/10 08:50:47;;;;;;;5.90;0.60;;;10.50;99.90;;;;;;4145451;28;20211;-73
2023/03/10 08:52:49;;;;;;;0.57;0.50;;;10.70;99.90;;;;;;4147776;28;20286;-74
2023/03/10 08:54:51;;;;;;;0.57;0.40;;;10.80;99.90;;;;;;4144125;28;20876;-74
2023/03/10 08:56:53;;;;;;;0.93;0.50;;;10.80;99.90;;;;;;4146998;28;20226;-73
2023/03/10 08:58:59;;;;;;;1.83;0.43;;;10.90;99.90;;;;;;4153127;28;20235;-74
2023/03/10 09:01:02;;;;;;;3.40;0.60;;;10.90;99.90;;;;;;4148801;28;20588;-73
2023/03/10 09:03:09;;;;;;;1.13;0.50;;;11.00;99.90;;;;;;4149073;28;20230;-75
2023/03/10 09:05:11;;;;;;;3.60;0.60;;;11.10;99.90;;;;;;4149892;28;20211;-73
2023/03/10 09:07:13;;;;;;;2.83;0.43;;;11.10;99.90;;;;;;4154975;28;20224;-73
2023/03/10 09:09:16;;;;;;;1.50;0.30;;;11.10;99.90;;;;;;4135954;28;20266;-74
2023/03/10 09:11:21;;;;;;;1.57;0.43;;;11.10;99.90;;;;;;4148909;28;21351;-74
2023/03/10 09:13:23;;;;;;;4.20;0.67;;;11.20;99.90;;;;;;4155944;28;20214;-74
2023/03/10 09:15:25;;;;;;;0.70;0.60;;;11.30;99.90;;;;;;4155588;28;20227;-74
2023/03/10 09:17:29;;;;;;;1.53;0.50;;;11.40;99.90;;;;;;4151944;28;20238;-74
2023/03/10 09:19:31;;;;;;;0.80;0.43;;;11.40;99.90;;;;;;4152747;28;20319;-74
2023/03/10 09:21:33;;;;;;;2.20;0.50;;;11.40;99.90;;;;;;4149319;28;20948;-73
2023/03/10 09:23:35;;;;;;;2.20;0.60;;;11.50;99.90;;;;;;4148675;28;20243;-76
2023/03/10 09:25:39;;;;;;;1.63;0.60;;;11.50;99.90;;;;;;4145970;28;21005;-73
2023/03/10 09:27:40;;;;;;;2.00;0.60;;;11.50;99.90;;;;;;4148128;28;20625;-74
2023/03/10 09:29:42;;;;;;;4.77;0.97;;;11.60;99.90;;;;;;4149717;28;20262;-73
2023/03/10 09:31:46;;;;;;;3.47;0.60;;;11.70;99.90;;;;;;4148347;28;20242;-73
2023/03/10 09:33:49;;;;;;;2.03;0.60;;;11.80;99.90;;;;;;4147373;28;20749;-73
2023/03/10 09:35:51;;;;;;;2.00;0.67;;;11.70;99.90;;;;;;4148817;28;20659;-73
2023/03/10 09:37:53;;;;;;;3.27;0.90;;;11.70;99.90;;;;;;4142295;28;20207;-73
2023/03/10 09:39:58;;;;;;;4.40;0.80;;;11.70;99.90;;;;;;4145877;28;20203;-74
2023/03/10 09:42:37;;;;;;;4.03;1.27;;;11.70;99.90;;;;;;4142652;28;20204;-74
2023/03/10 09:44:42;;;;;;;1.80;0.47;;;11.70;99.90;;;;;;4145245;28;20704;-76
2023/03/10 09:46:53;;;;;;;1.23;0.50;;;11.70;99.90;;;;;;4149720;28;20215;-75
2023/03/10 09:49:07;;;;;;;3.70;0.80;;;11.70;99.90;;;;;;4147982;28;20226;-75
2023/03/10 09:51:15;;;;;;;2.83;0.60;;;11.80;99.90;;;;;;4142714;28;20939;-75
2023/03/10 09:53:54;;;;;;;2.27;1.07;;;11.80;99.90;;;;;;4151404;28;20218;-74
2023/03/10 09:55:57;;;;;;;3.73;0.70;;;11.80;99.90;;;;;;4094232;28;20235;-75
2023/03/10 09:57:59;;;;;;;3.03;0.80;;;11.90;99.90;;;;;;4098705;28;20301;-74
2023/03/10 10:00:10;;;;;;;1.93;0.70;;;11.80;99.90;;;;;;4098660;28;20568;-75
2023/03/10 10:02:17;;;;;;;3.50;1.33;;;11.90;99.90;;;;;;4149387;28;20200;-74
2023/03/10 10:04:25;;;;;;;1.90;0.70;;;11.90;99.90;;;;;;4148373;28;20259;-75
2023/03/10 10:06:32;;;;;;;2.53;0.83;;;12.00;99.90;;;;;;4150175;28;20212;-74
2023/03/10 10:08:52;;;;;;;3.67;1.03;;;12.00;99.90;;;;;;4152979;28;20394;-76
2023/03/10 10:10:59;;;;;;;2.13;0.70;;;12.10;99.90;;;;;;4159809;28;20216;-76
2023/03/10 10:13:11;;;;;;;2.10;0.77;;;12.10;99.90;;;;;;4144589;28;20286;-77
2023/03/10 10:15:20;;;;;;;2.57;0.67;;;12.20;99.90;;;;;;4138109;28;20211;-78
2023/03/10 10:17:33;;;;;;;2.10;0.70;;;12.20;99.90;;;;;;4145292;28;20318;-75
2023/03/10 10:19:38;;;;;;;4.73;0.80;;;12.20;99.90;;;;;;4144601;28;20258;-81
2023/03/10 10:21:47;;;;;;;2.33;0.77;;;12.20;99.90;;;;;;4144292;28;20214;-81
2023/03/10 10:23:50;;;;;;;6.83;1.10;;;12.20;99.90;;;;;;4151954;28;20306;-78
2023/03/10 10:25:53;;;;;;;4.17;1.20;;;12.20;99.90;;;;;;4142849;28;20230;-77
2023/03/10 10:27:56;;;;;;;1.93;0.70;;;12.20;99.90;;;;;;4154415;28;20222;-75
2023/03/10 10:29:59;;;;;;;3.90;0.80;;;12.20;99.90;;;;;;4153575;28;20218;-72
2023/03/10 10:32:09;;;;;;;4.87;0.70;;;12.20;99.90;;;;;;4139313;28;20272;-76
2023/03/10 10:34:20;;;;;;;7.87;0.80;;;12.20;99.90;;;;;;4142637;28;20211;-72
2023/03/10 10:36:27;;;;;;;3.57;0.80;;;12.30;99.90;;;;;;4146911;28;20228;-72
2023/03/10 10:38:30;;;;;;;4.53;1.10;;;12.30;99.90;;;;;;4144297;28;20228;-78
2023/03/10 10:40:35;;;;;;;2.30;0.60;;;12.40;99.90;;;;;;4144357;28;20212;-77
2023/03/10 10:42:37;;;;;;;3.07;0.73;;;12.40;99.90;;;;;;4142617;28;20223;-76
2023/03/10 10:44:41;;;;;;;2.57;0.70;;;12.50;99.90;;;;;;4141486;28;20207;-77
2023/03/10 10:46:52;;;;;;;3.27;0.70;;;12.60;99.90;;;;;;4155123;28;20269;-77
2023/03/10 10:49:03;;;;;;;2.33;0.60;;;12.70;99.90;;;;;;4155804;28;20224;-76